Aeroporto :







RITROVATECI SU...

 
LOGIN :

Iscrizione | Disclaimer

   EN    FR    IT 

 









Sommario :    VFR   VFR Marginale   IFR   IFR Intensivo   IFR Molto Intensivo
Visibilità : 
Base nubi : 
>= 8 km
>= 3000ft
5 / 8 km
1000 / 3000 ft
1500m / 5 km
500 / 1000 ft
800 / 1500m
200 / 500 ft
< 800m
< 200 ft
Simboli :   Temporali  Nebbia  Neve Forte  Precipitazioni Forti  Vento > 20 kt







- Altitudine del aeroporto : 68 ft
- Codice IATA : YFC


CYFC - Fredericton

ULTIMO METAR :
  • 190604Z AUTO 19003KT 1 3/4SM R09/1200FT/N BR BKN002 01/01 A3031 RMK SLP266

METARs OBSOLETI :
  • 190556Z AUTO 21003KT 9SM BKN002 01/01 A3031 RMK SLP266
  • 190500Z AUTO 00000KT 9SM CLR 02/02 A3032 RMK SLP268
  • 190449Z AUTO 00000KT 9SM CLR 02/02 A3032 RMK SLP270
  • 190444Z AUTO 00000KT 3SM BR CLR 02/02 A3033 RMK SLP271
  • 190433Z AUTO 30002KT 1 3/4SM BR CLR 02/02 A3032 RMK SLP270
  • 190419Z AUTO 31003KT 9SM CLR 02/02 A3032 RMK SLP270
  • 190400Z AUTO 00000KT 9SM CLR 03/03 A3032 RMK SLP269
  • 190317Z AUTO 21004KT 9SM CLR 02/02 A3032 RMK SLP268
  • 190311Z AUTO 23002KT 9SM CLR 02/02 A3032 RMK SLP269

TAF TAF CYFC
Valido dal 19 a 06 ore il 19 a 18 ore UTC


190538Z 1906/1918 VRB03KT P6SM SKC
TEMPO 1906/1911 11/2SM BR SCT002
PROB30 1906/1911 1/2SM FG VV002
FM191200 24005KT P6SM FEW002 RMK FCST BASED ON AUTO OBS. NXT FCST BY 191200Z
Nessun NOTAM noto per questo aeroporto.



MetMap, La meteo Aeronautica in un colpo d'occhio ! - Copyright ORBIFLY Dicembre 2007 - Disclaimer

ORBIFLY MET'MAP TEAM :

Programmazione e sviluppo : Alexandra Zaïnal
Concezione e sviluppo : Baudouin d'Aumeries
Co-Programmazione e sviluppo : Marc-Olivier Méhu
Supporto tecnico e logistico : Manuel Goepfert
Aiuto per la traduzione : Arnaldo La Scala

Contatto : metmap@orbifly.com




FONTI E CREDITI :

   NOAA